Time;durP1;ratioP1;P1;durP2;ratioP2;P2;SDS_P1;SDS_P2;PMS_P1;PMS_P2;Temp;Humidity;BMP_temperature;BMP_pressure;BME280_temperature;BME280_humidity;BME280_pressure;Samples;Min_cycle;Max_cycle;Signal;HPM_P1;HPM_P2
2021/09/06 00:00:49;;;;;;;3.80;1.40;;;;;;;7.73;71.89;97604.79;115905;1188;25452;-90
2021/09/06 00:03:17;;;;;;;2.50;1.50;;;;;;;7.84;71.96;97602.70;115901;1188;27582;-90
2021/09/06 00:05:46;;;;;;;1.90;1.20;;;;;;;7.89;71.78;97597.52;115902;1188;31837;-90
2021/09/06 00:08:14;;;;;;;5.20;1.30;;;;;;;7.91;71.67;97596.88;115897;1188;27278;-90
2021/09/06 00:10:47;;;;;;;3.70;1.10;;;;;;;7.85;71.71;97599.59;115875;1189;28043;-91
2021/09/06 00:13:18;;;;;;;3.10;1.20;;;;;;;7.84;71.63;97607.13;115908;1188;25141;-90
2021/09/06 00:15:45;;;;;;;;;;;;;;;7.77;71.80;97603.43;115949;1188;26426;-90
2021/09/06 00:18:13;;;;;;;2.70;1.00;;;;;;;7.73;71.91;97605.05;115834;1189;28189;-90
2021/09/06 00:20:42;;;;;;;2.40;0.90;;;;;;;7.80;72.01;97606.22;115812;1188;32804;-91
2021/09/06 00:23:11;;;;;;;2.00;1.30;;;;;;;7.90;71.71;97601.35;115846;1188;26592;-91
2021/09/06 00:25:40;;;;;;;2.30;1.20;;;;;;;8.00;71.90;97601.83;115871;1188;25955;-90
2021/09/06 00:28:08;;;;;;;2.90;1.10;;;;;;;8.06;71.56;97604.96;115849;1188;25138;-89
2021/09/06 00:30:38;;;;;;;2.10;1.10;;;;;;;7.89;71.25;97598.85;115852;1188;31854;-90
2021/09/06 00:33:06;;;;;;;2.40;1.20;;;;;;;7.64;71.77;97601.75;115844;1196;28624;-90
2021/09/06 00:35:34;;;;;;;2.60;1.10;;;;;;;7.47;72.11;97594.98;115829;1188;25287;-90
2021/09/06 00:38:03;;;;;;;3.50;1.60;;;;;;;7.44;72.28;97596.03;115824;1188;25901;-90
2021/09/06 00:40:31;;;;;;;4.10;1.80;;;;;;;7.45;72.59;97592.79;115838;1196;24459;-91
2021/09/06 00:42:59;;;;;;;2.40;1.00;;;;;;;7.51;72.59;97593.01;115815;1188;26252;-91
2021/09/06 00:45:28;;;;;;;2.80;1.30;;;;;;;7.59;72.49;97595.11;115826;1188;28419;-90
2021/09/06 00:47:56;;;;;;;3.10;1.20;;;;;;;7.67;72.35;97596.96;115804;1188;23997;-89
2021/09/06 00:50:24;;;;;;;2.30;1.20;;;;;;;7.81;72.43;97592.62;115835;1188;25246;-90
2021/09/06 00:52:52;;;;;;;2.30;1.30;;;;;;;7.82;71.97;97588.41;115812;1191;28621;-91
2021/09/06 00:55:21;;;;;;;2.80;1.10;;;;;;;7.73;71.94;97592.32;115795;1190;26471;-90
2021/09/06 00:57:49;;;;;;;1.90;0.90;;;;;;;7.77;71.94;97590.65;115860;1188;30773;-91
2021/09/06 01:00:19;;;;;;;2.60;1.30;;;;;;;7.68;71.70;97594.88;115908;1188;27859;-90
2021/09/06 01:02:47;;;;;;;1.90;1.10;;;;;;;7.68;71.57;97594.80;115926;1196;27549;-90
2021/09/06 01:05:16;;;;;;;2.20;1.30;;;;;;;7.67;71.47;97599.38;115899;1188;25662;-90
2021/09/06 01:07:44;;;;;;;1.70;1.10;;;;;;;7.61;71.32;97594.20;115924;1188;27459;-90
2021/09/06 01:10:14;;;;;;;2.10;1.10;;;;;;;7.39;71.50;97593.52;115879;1188;27590;-91
2021/09/06 01:12:43;;;;;;;1.20;0.60;;;;;;;7.22;72.05;97594.14;115863;1195;31082;-90
2021/09/06 01:15:12;;;;;;;3.60;1.00;;;;;;;7.06;72.28;97590.94;115847;1191;28419;-90
2021/09/06 01:17:41;;;;;;;1.60;1.10;;;;;;;7.02;72.45;97592.30;115832;1188;26856;-90
2021/09/06 01:20:12;;;;;;;1.90;1.10;;;;;;;6.99;72.55;97591.23;115833;1188;28775;-89
2021/09/06 01:22:40;;;;;;;1.40;0.80;;;;;;;7.05;72.83;97594.55;115830;1189;31301;-90
2021/09/06 01:25:13;;;;;;;2.60;0.90;;;;;;;7.05;72.70;97595.55;115851;1188;25619;-90
2021/09/06 01:27:42;;;;;;;1.90;1.00;;;;;;;7.03;72.73;97592.81;115832;1189;27458;-89
2021/09/06 01:30:12;;;;;;;1.30;0.90;;;;;;;7.03;72.80;97595.06;115881;1188;26663;-90
2021/09/06 01:32:40;;;;;;;4.20;1.00;;;;;;;6.98;72.80;97591.33;115824;1188;27728;-89
2021/09/06 01:35:10;;;;;;;2.50;1.00;;;;;;;6.98;72.99;97588.73;115851;1189;26664;-89
2021/09/06 01:37:39;;;;;;;1.20;0.70;;;;;;;6.91;73.00;97585.23;115839;1188;27333;-90
2021/09/06 01:40:09;;;;;;;1.50;0.90;;;;;;;6.93;73.27;97585.52;115881;1188;29559;-90
2021/09/06 01:42:37;;;;;;;1.60;1.10;;;;;;;6.84;73.37;97582.42;115853;1195;27814;-90
2021/09/06 01:45:08;;;;;;;1.50;1.00;;;;;;;6.85;73.47;97584.63;115822;1190;28759;-91
2021/09/06 01:47:36;;;;;;;1.40;0.70;;;;;;;6.93;73.31;97581.95;115853;1188;27756;-90
2021/09/06 01:50:05;;;;;;;2.70;1.30;;;;;;;6.92;73.21;97586.47;115815;1189;28482;-91
2021/09/06 01:52:34;;;;;;;1.80;1.10;;;;;;;6.88;73.39;97583.52;115841;1189;29717;-91
2021/09/06 01:55:02;;;;;;;2.30;1.00;;;;;;;6.87;73.72;97582.27;115827;1188;33069;-91
2021/09/06 01:57:30;;;;;;;2.80;1.30;;;;;;;6.94;73.79;97586.07;115826;1189;30696;-91
2021/09/06 01:59:59;;;;;;;3.80;1.40;;;;;;;7.01;73.48;97585.02;115848;1188;27658;-91
2021/09/06 02:02:27;;;;;;;2.80;1.40;;;;;;;7.07;73.53;97588.74;115844;1192;26953;-92
2021/09/06 02:04:56;;;;;;;3.40;1.20;;;;;;;7.01;73.48;97596.77;115845;1188;26719;-91
2021/09/06 02:07:24;;;;;;;1.80;0.80;;;;;;;7.04;73.57;97594.95;115865;1188;30925;-90
2021/09/06 02:09:52;;;;;;;1.90;1.10;;;;;;;7.01;73.37;97597.29;115824;1191;26718;-90
2021/09/06 02:12:20;;;;;;;1.90;1.10;;;;;;;6.82;73.75;97597.41;115819;1188;26437;-91
2021/09/06 02:14:49;;;;;;;1.40;0.80;;;;;;;6.67;74.10;97599.05;115931;1181;26059;-91
2021/09/06 02:17:17;;;;;;;1.20;1.10;;;;;;;6.62;74.73;97596.20;115883;1185;36013;-89
2021/09/06 02:19:45;;;;;;;1.90;1.20;;;;;;;6.65;75.11;97600.24;115906;1188;26185;-90
2021/09/06 02:22:13;;;;;;;3.70;1.00;;;;;;;6.66;75.02;97598.67;115823;1188;26843;-91
2021/09/06 02:24:42;;;;;;;1.90;1.20;;;;;;;6.66;75.00;97602.58;115814;1196;28295;-90
2021/09/06 02:27:10;;;;;;;2.40;1.20;;;;;;;6.61;74.63;97600.58;115785;1188;26369;-90
2021/09/06 02:29:38;;;;;;;7.00;1.40;;;;;;;6.54;74.80;97603.63;115883;1182;27401;-91
2021/09/06 02:32:07;;;;;;;6.00;2.70;;;;;;;6.57;75.27;97600.56;115867;1189;25544;-90
2021/09/06 02:34:35;;;;;;;2.00;1.20;;;;;;;6.61;75.23;97599.13;115827;1185;31754;-90
2021/09/06 02:37:04;;;;;;;3.00;1.20;;;;;;;6.64;75.39;97597.70;115816;1188;27824;-91
2021/09/06 02:39:32;;;;;;;3.40;1.50;;;;;;;6.68;75.19;97601.20;115837;1188;37000;-90
2021/09/06 02:42:01;;;;;;;3.20;1.40;;;;;;;6.74;75.23;97599.42;115834;1189;25139;-90
2021/09/06 02:44:30;;;;;;;1.20;0.70;;;;;;;6.62;74.87;97597.52;115832;1188;24868;-90
2021/09/06 02:46:58;;;;;;;2.40;1.20;;;;;;;6.46;75.16;97602.59;115819;1189;29031;-91
2021/09/06 02:49:27;;;;;;;1.20;0.90;;;;;;;6.32;75.66;97602.05;115840;1188;30487;-91
2021/09/06 02:51:55;;;;;;;1.80;1.00;;;;;;;6.26;75.87;97604.69;115836;1189;26167;-90
2021/09/06 02:54:23;;;;;;;2.00;1.00;;;;;;;6.26;75.93;97609.68;115840;1195;28576;-90
2021/09/06 02:56:52;;;;;;;3.80;1.10;;;;;;;6.29;76.03;97611.42;115835;1190;29678;-90
2021/09/06 02:59:20;;;;;;;2.90;0.90;;;;;;;6.37;75.96;97608.70;115848;1185;45708;-90
2021/09/06 03:01:48;;;;;;;2.30;1.20;;;;;;;6.48;75.96;97609.42;115912;1195;24722;-89
2021/09/06 03:04:16;;;;;;;2.10;1.20;;;;;;;6.60;75.88;97609.28;115917;1189;25350;-90
2021/09/06 03:06:45;;;;;;;1.20;0.90;;;;;;;6.68;75.50;97611.48;115877;1189;38254;-90
2021/09/06 03:09:13;;;;;;;3.00;1.50;;;;;;;6.72;75.27;97607.81;115894;1191;30075;-90
2021/09/06 03:11:42;;;;;;;2.50;1.30;;;;;;;6.60;75.09;97606.64;115809;1189;44665;-90
2021/09/06 03:14:10;;;;;;;3.80;1.00;;;;;;;6.54;75.03;97599.98;115841;1188;27726;-89
2021/09/06 03:16:38;;;;;;;2.20;1.00;;;;;;;6.53;74.89;97597.23;115850;1188;25712;-91
2021/09/06 03:19:06;;;;;;;2.80;1.10;;;;;;;6.54;74.78;97597.40;115872;1188;24481;-90
2021/09/06 03:21:35;;;;;;;3.00;1.30;;;;;;;6.58;74.60;97595.32;115778;1189;30879;-90
2021/09/06 03:24:04;;;;;;;2.30;0.90;;;;;;;6.49;74.81;97591.65;115846;1188;24243;-89
2021/09/06 03:26:32;;;;;;;3.40;0.90;;;;;;;6.37;75.22;97598.46;115837;1188;32477;-90
2021/09/06 03:29:00;;;;;;;3.40;1.40;;;;;;;6.21;75.20;97597.88;115869;1189;25772;-90
2021/09/06 03:31:31;;;;;;;2.00;1.10;;;;;;;6.14;75.86;97599.13;115838;1189;26726;-90
2021/09/06 03:33:59;;;;;;;1.70;0.90;;;;;;;6.16;76.19;97595.35;115812;1189;38865;-90
2021/09/06 03:36:27;;;;;;;2.70;1.10;;;;;;;6.19;76.02;97597.46;115854;1182;30176;-90
2021/09/06 03:38:56;;;;;;;2.20;1.00;;;;;;;6.30;75.94;97597.55;115848;1188;31451;-89
2021/09/06 03:41:24;;;;;;;1.50;1.20;;;;;;;6.29;75.80;97598.16;115855;1185;26538;-89
2021/09/06 03:43:53;;;;;;;2.70;1.30;;;;;;;6.26;75.85;97601.78;115885;1189;28967;-89
2021/09/06 03:46:21;;;;;;;2.20;0.90;;;;;;;6.31;75.98;97603.31;115874;1189;28911;-90
2021/09/06 03:48:49;;;;;;;1.90;1.00;;;;;;;6.17;75.71;97605.09;115863;1189;27730;-90
2021/09/06 03:51:17;;;;;;;2.40;1.00;;;;;;;6.06;75.85;97606.54;115874;1181;28711;-90
2021/09/06 03:53:45;;;;;;;2.60;1.10;;;;;;;6.02;76.37;97608.70;115936;1188;25660;-90
2021/09/06 03:56:14;;;;;;;3.10;1.70;;;;;;;6.03;76.76;97610.25;115826;1189;27287;-91
2021/09/06 03:58:42;;;;;;;2.30;1.10;;;;;;;6.07;76.71;97606.85;115847;1188;24731;-90
2021/09/06 04:01:11;;;;;;;1.80;1.00;;;;;;;5.98;76.42;97613.65;115830;1189;29413;-90
2021/09/06 04:03:39;;;;;;;1.40;0.90;;;;;;;5.91;76.73;97616.41;115817;1189;29796;-89
2021/09/06 04:06:07;;;;;;;2.30;1.20;;;;;;;5.88;77.05;97614.95;115811;1189;27709;-89
2021/09/06 04:08:35;;;;;;;4.30;1.50;;;;;;;5.90;77.22;97620.30;115816;1195;28512;-90
2021/09/06 04:11:04;;;;;;;4.40;1.10;;;;;;;5.95;77.37;97619.85;115860;1189;29083;-91
2021/09/06 04:13:32;;;;;;;3.10;0.90;;;;;;;6.05;77.07;97622.84;115843;1189;27660;-90
2021/09/06 04:16:00;;;;;;;2.40;1.00;;;;;;;6.12;76.90;97621.23;115836;1188;28858;-90
2021/09/06 04:18:30;;;;;;;1.20;0.80;;;;;;;6.38;77.19;97622.20;115886;1188;24504;-89
2021/09/06 04:20:58;;;;;;;1.40;1.00;;;;;;;6.87;77.05;97621.30;115866;1189;27648;-90
2021/09/06 04:23:26;;;;;;;2.70;1.20;;;;;;;7.32;76.69;97618.16;115838;1186;27369;-89
2021/09/06 04:25:55;;;;;;;2.50;1.10;;;;;;;7.86;75.93;97620.23;115858;1189;28756;-90
2021/09/06 04:28:23;;;;;;;2.60;1.10;;;;;;;8.33;75.10;97617.59;115846;1189;28094;-90
2021/09/06 04:30:51;;;;;;;3.80;1.50;;;;;;;8.97;74.74;97618.06;115779;1189;27842;-90
2021/09/06 04:33:19;;;;;;;2.60;1.10;;;;;;;9.86;74.49;97610.77;115900;1189;28332;-90
2021/09/06 04:35:47;;;;;;;2.20;1.00;;;;;;;10.81;73.45;97607.98;115864;1189;26808;-90
2021/09/06 04:38:16;;;;;;;2.50;0.80;;;;;;;11.71;71.94;97611.25;115920;1196;26205;-91
2021/09/06 04:40:44;;;;;;;2.30;1.10;;;;;;;12.23;69.21;97608.52;115817;1188;26802;-90
2021/09/06 04:43:13;;;;;;;2.30;1.00;;;;;;;12.75;69.13;97609.06;115782;1189;28644;-91
2021/09/06 04:45:41;;;;;;;4.10;1.50;;;;;;;13.52;68.09;97611.82;115806;1189;27506;-90
2021/09/06 04:48:10;;;;;;;1.70;1.10;;;;;;;14.44;67.78;97612.02;115803;1195;29670;-89
2021/09/06 04:50:38;;;;;;;3.80;0.90;;;;;;;15.14;64.02;97607.91;115828;1188;30407;-91
2021/09/06 04:53:06;;;;;;;1.10;0.90;;;;;;;15.26;62.75;97612.86;115800;1185;26168;-91
2021/09/06 04:55:35;;;;;;;1.70;0.90;;;;;;;15.89;62.64;97613.27;115819;1188;28909;-91
2021/09/06 04:58:03;;;;;;;1.30;0.70;;;;;;;16.19;59.93;97611.84;115823;1191;30411;-91
2021/09/06 05:00:31;;;;;;;1.30;0.80;;;;;;;16.35;59.93;97615.52;115843;1195;26629;-91
2021/09/06 05:03:00;;;;;;;2.80;0.80;;;;;;;17.19;61.18;97614.91;115787;1189;27496;-91
2021/09/06 05:05:28;;;;;;;2.00;1.00;;;;;;;18.36;60.34;97617.09;115823;1189;27929;-91
2021/09/06 05:07:56;;;;;;;5.00;1.20;;;;;;;19.45;58.83;97609.99;115763;1192;34252;-91
2021/09/06 05:10:25;;;;;;;1.70;1.00;;;;;;;20.34;57.18;97615.12;115824;1188;27328;-92
2021/09/06 05:12:53;;;;;;;1.50;1.00;;;;;;;21.09;55.87;97612.98;115839;1195;29845;-90
2021/09/06 05:15:21;;;;;;;1.40;0.90;;;;;;;22.00;54.36;97617.20;115823;1189;29609;-91
2021/09/06 05:17:49;;;;;;;1.70;0.80;;;;;;;22.75;52.82;97621.08;115811;1196;27440;-90
2021/09/06 05:20:18;;;;;;;1.60;1.00;;;;;;;23.50;51.46;97620.94;115891;1192;30095;-91
2021/09/06 05:22:46;;;;;;;1.80;0.90;;;;;;;24.03;50.01;97619.13;115908;1189;43231;-91
2021/09/06 05:25:14;;;;;;;2.30;1.00;;;;;;;24.76;48.74;97618.23;115921;1189;29363;-90
2021/09/06 05:27:43;;;;;;;1.40;1.00;;;;;;;25.26;47.20;97615.10;115814;1189;32006;-88
2021/09/06 05:30:13;;;;;;;2.00;1.10;;;;;;;25.81;45.99;97613.59;115824;1189;41249;-90
2021/09/06 05:32:42;;;;;;;2.50;1.10;;;;;;;26.37;44.69;97614.67;115843;1189;48848;-91
2021/09/06 05:35:11;;;;;;;2.40;1.20;;;;;;;26.70;43.16;97615.20;115811;1194;29813;-90
2021/09/06 05:37:40;;;;;;;1.80;0.90;;;;;;;26.59;42.52;97611.74;115818;1189;32703;-91
2021/09/06 05:40:11;;;;;;;3.30;1.40;;;;;;;26.90;42.06;97609.58;115841;1189;33117;-91
2021/09/06 05:42:39;;;;;;;2.60;1.30;;;;;;;27.17;41.00;97610.73;115766;1195;38809;-91
2021/09/06 05:45:10;;;;;;;1.60;0.90;;;;;;;27.75;40.77;97609.20;115780;1189;31544;-91
2021/09/06 05:47:39;;;;;;;1.90;1.20;;;;;;;28.69;40.08;97606.69;115821;1189;28346;-91
2021/09/06 05:50:09;;;;;;;1.90;1.50;;;;;;;29.56;39.12;97604.05;115806;1189;30370;-91
2021/09/06 05:52:38;;;;;;;3.40;1.70;;;;;;;30.11;37.79;97604.16;115842;1193;30314;-92
2021/09/06 05:55:08;;;;;;;2.60;1.70;;;;;;;30.15;36.46;97603.32;115795;1189;30992;-91
2021/09/06 05:57:35;;;;;;;;;;;;;;;29.99;35.69;97607.73;115823;1189;35559;-91
2021/09/06 06:00:05;;;;;;;4.00;1.60;;;;;;;29.93;35.91;97604.34;115849;1184;28368;-92
2021/09/06 06:02:33;;;;;;;2.30;1.30;;;;;;;30.82;35.56;97606.02;115822;1194;33199;-91
2021/09/06 06:05:02;;;;;;;2.50;1.10;;;;;;;30.96;34.43;97608.65;115777;1189;29371;-91
2021/09/06 06:07:31;;;;;;;1.30;1.00;;;;;;;30.21;33.57;97602.08;115792;1189;33846;-91
2021/09/06 06:09:59;;;;;;;2.30;1.30;;;;;;;29.90;33.81;97604.77;115798;1189;28895;-91
2021/09/06 06:12:28;;;;;;;2.70;1.30;;;;;;;29.89;33.61;97603.91;115827;1193;29299;-92
2021/09/06 06:14:57;;;;;;;1.90;1.00;;;;;;;29.51;32.76;97604.80;115776;1188;34420;-92
2021/09/06 06:17:26;;;;;;;3.00;1.30;;;;;;;28.94;32.66;97602.52;115780;1188;32475;-91
2021/09/06 06:19:54;;;;;;;1.60;1.10;;;;;;;28.68;32.54;97599.98;115817;1189;33171;-91
2021/09/06 06:22:22;;;;;;;3.00;1.20;;;;;;;28.51;32.67;97597.60;115844;1189;28990;-90
2021/09/06 06:24:51;;;;;;;2.40;1.20;;;;;;;28.29;32.60;97596.77;115824;1185;35918;-91
2021/09/06 06:27:19;;;;;;;1.90;1.30;;;;;;;28.38;32.57;97600.70;115892;1196;34443;-90
2021/09/06 06:29:47;;;;;;;3.40;1.40;;;;;;;28.63;32.60;97602.26;115861;1189;27656;-91
2021/09/06 06:32:16;;;;;;;2.00;1.30;;;;;;;29.00;32.13;97606.66;115911;1188;27568;-91
2021/09/06 06:34:44;;;;;;;1.70;1.30;;;;;;;29.07;32.06;97605.09;115836;1188;33546;-91
2021/09/06 06:37:13;;;;;;;2.20;1.40;;;;;;;29.15;31.95;97603.13;115819;1189;28680;-90
2021/09/06 06:39:41;;;;;;;1.90;1.30;;;;;;;30.02;32.41;97610.10;115776;1193;39892;-91
2021/09/06 06:42:10;;;;;;;2.90;1.30;;;;;;;30.65;31.39;97609.03;115797;1193;39052;-91
2021/09/06 06:44:40;;;;;;;1.70;1.20;;;;;;;31.05;31.31;97614.64;115806;1188;35528;-90
2021/09/06 06:47:08;;;;;;;1.90;1.20;;;;;;;31.97;31.26;97616.08;115799;1193;38549;-92
2021/09/06 06:49:37;;;;;;;1.20;1.00;;;;;;;32.95;30.63;97614.74;115790;1190;30785;-91
2021/09/06 06:52:06;;;;;;;4.30;1.10;;;;;;;33.83;30.15;97613.33;115808;1189;29072;-90
2021/09/06 06:54:35;;;;;;;2.10;1.10;;;;;;;34.96;29.39;97613.88;115799;1193;29136;-91
2021/09/06 06:57:04;;;;;;;1.70;1.20;;;;;;;35.84;28.27;97620.05;115807;1193;26051;-91
2021/09/06 06:59:32;;;;;;;2.40;1.60;;;;;;;36.30;27.34;97616.54;115771;1196;34955;-91
2021/09/06 07:02:00;;;;;;;2.80;1.80;;;;;;;35.03;24.85;97613.42;115786;1189;28604;-91
2021/09/06 07:04:29;;;;;;;1.60;1.20;;;;;;;33.34;25.86;97614.83;115839;1189;27060;-91
2021/09/06 07:06:57;;;;;;;2.70;1.00;;;;;;;33.14;26.22;97610.65;115764;1193;31045;-91
2021/09/06 07:09:26;;;;;;;1.90;1.20;;;;;;;33.01;26.27;97615.05;115811;1189;31274;-91
2021/09/06 07:11:54;;;;;;;1.40;1.20;;;;;;;33.48;27.09;97612.52;115826;1185;41823;-91
2021/09/06 07:14:22;;;;;;;1.60;1.30;;;;;;;34.32;25.71;97617.35;115822;1189;27956;-90
2021/09/06 07:16:50;;;;;;;1.70;1.20;;;;;;;34.42;25.72;97620.86;115812;1193;31092;-90
2021/09/06 07:19:19;;;;;;;1.20;0.90;;;;;;;34.21;24.85;97625.01;115873;1189;27968;-91
2021/09/06 07:21:47;;;;;;;1.20;0.90;;;;;;;34.00;24.78;97623.58;115900;1189;28487;-90
2021/09/06 07:24:16;;;;;;;1.20;0.90;;;;;;;33.79;24.67;97631.61;115893;1189;31508;-90
2021/09/06 07:26:45;;;;;;;1.60;1.00;;;;;;;34.57;25.80;97629.40;115781;1189;27595;-90
2021/09/06 07:29:13;;;;;;;0.90;0.80;;;;;;;35.47;23.75;97633.96;115869;1193;30003;-90
2021/09/06 07:31:42;;;;;;;1.50;1.00;;;;;;;34.37;23.45;97637.83;115875;1189;26975;-91
2021/09/06 07:34:10;;;;;;;1.60;1.00;;;;;;;33.93;23.54;97642.19;115806;1193;27254;-90
2021/09/06 07:36:38;;;;;;;1.50;1.00;;;;;;;33.69;23.68;97638.92;115805;1189;27601;-90
2021/09/06 07:39:06;;;;;;;1.60;0.90;;;;;;;33.27;22.81;97642.05;115820;1193;26110;-90
2021/09/06 07:41:35;;;;;;;1.50;1.20;;;;;;;32.34;22.88;97646.67;115799;1189;28985;-89
2021/09/06 07:44:04;;;;;;;1.50;1.10;;;;;;;32.12;24.10;97643.52;115820;1195;28221;-89
2021/09/06 07:46:32;;;;;;;2.80;1.30;;;;;;;31.93;23.13;97648.45;115828;1189;34084;-90
2021/09/06 07:49:00;;;;;;;1.50;1.10;;;;;;;31.13;23.32;97646.50;115816;1189;37345;-89
2021/09/06 07:51:28;;;;;;;1.30;1.00;;;;;;;31.31;24.25;97645.92;115832;1189;29331;-89
2021/09/06 07:53:57;;;;;;;2.00;1.10;;;;;;;31.28;23.32;97652.09;115840;1185;29237;-90
2021/09/06 07:56:25;;;;;;;3.30;1.00;;;;;;;30.28;23.08;97653.71;115840;1195;28021;-90
2021/09/06 07:58:54;;;;;;;2.60;1.20;;;;;;;29.27;23.95;97651.63;115863;1185;27069;-91
2021/09/06 08:01:24;;;;;;;1.80;1.20;;;;;;;28.70;25.70;97652.46;115831;1193;31232;-90
2021/09/06 08:03:53;;;;;;;3.20;1.20;;;;;;;29.46;26.57;97653.22;115822;1189;27081;-90
2021/09/06 08:06:21;;;;;;;2.50;1.20;;;;;;;30.41;26.23;97654.25;115871;1185;35137;-90
2021/09/06 08:08:49;;;;;;;1.90;1.10;;;;;;;29.83;24.91;97656.89;115893;1189;28114;-89
2021/09/06 08:11:18;;;;;;;1.60;1.10;;;;;;;28.56;24.70;97659.96;115899;1193;25755;-89
2021/09/06 08:13:46;;;;;;;2.70;1.10;;;;;;;26.86;25.85;97664.08;115915;1190;28295;-90
2021/09/06 08:16:14;;;;;;;2.30;1.30;;;;;;;25.31;27.28;97659.48;115840;1185;27651;-90
2021/09/06 08:18:43;;;;;;;3.10;1.60;;;;;;;24.24;28.16;97666.13;115851;1189;27395;-89
2021/09/06 08:21:11;;;;;;;3.40;1.90;;;;;;;22.88;29.44;97668.05;115834;1189;27499;-89
2021/09/06 08:23:40;;;;;;;2.90;1.50;;;;;;;22.42;30.92;97671.67;115802;1189;26510;-90
2021/09/06 08:26:09;;;;;;;4.00;1.40;;;;;;;22.40;31.38;97675.25;115842;1189;27552;-90
2021/09/06 08:28:38;;;;;;;2.90;1.40;;;;;;;22.13;30.98;97677.59;115849;1188;26577;-89
2021/09/06 08:31:06;;;;;;;1.50;1.10;;;;;;;21.43;31.51;97679.55;115782;1190;31333;-90
2021/09/06 08:33:35;;;;;;;2.10;1.10;;;;;;;20.83;32.41;97678.82;115771;1189;32070;-89
2021/09/06 08:36:04;;;;;;;1.80;1.10;;;;;;;20.46;33.70;97677.71;115827;1189;36016;-89
2021/09/06 08:38:32;;;;;;;1.90;0.80;;;;;;;20.69;34.42;97681.36;115812;1193;37699;-89
2021/09/06 08:41:02;;;;;;;4.30;1.00;;;;;;;20.93;34.20;97679.58;115802;1187;32150;-89
2021/09/06 08:43:32;;;;;;;3.10;0.90;;;;;;;21.19;34.03;97678.56;115841;1190;38153;-89
2021/09/06 08:46:01;;;;;;;2.50;1.20;;;;;;;20.96;33.98;97679.78;115804;1193;27588;-88
2021/09/06 08:48:30;;;;;;;2.30;1.00;;;;;;;20.98;35.38;97678.71;115792;1190;28144;-88
2021/09/06 08:50:58;;;;;;;3.20;1.20;;;;;;;21.24;34.73;97677.96;115850;1196;31056;-91
2021/09/06 08:53:27;;;;;;;2.60;1.20;;;;;;;21.04;34.34;97681.89;115796;1189;38044;-90
2021/09/06 08:55:56;;;;;;;3.00;1.20;;;;;;;20.38;34.59;97681.24;115814;1189;30164;-90
2021/09/06 08:58:24;;;;;;;4.10;1.30;;;;;;;19.97;35.56;97683.20;115802;1185;38735;-90
2021/09/06 09:00:52;;;;;;;1.60;1.00;;;;;;;19.97;36.34;97682.88;115825;1189;28986;-88
2021/09/06 09:03:20;;;;;;;3.60;1.20;;;;;;;20.32;36.89;97678.95;115790;1189;30017;-89
2021/09/06 09:06:03;;;;;;;2.40;1.30;;;;;;;20.38;36.04;97678.41;115899;1190;25854;-89
2021/09/06 09:08:32;;;;;;;1.50;0.90;;;;;;;20.28;37.10;97677.46;115838;1189;26978;-89
2021/09/06 09:11:02;;;;;;;1.50;1.00;;;;;;;20.05;36.56;97682.54;115833;1189;32133;-89
2021/09/06 09:13:32;;;;;;;1.70;1.10;;;;;;;19.44;36.86;97684.06;115832;1189;27484;-89
2021/09/06 09:16:02;;;;;;;1.90;1.30;;;;;;;19.26;37.63;97686.84;115828;1189;30289;-88
2021/09/06 09:18:31;;;;;;;4.20;1.40;;;;;;;19.41;38.31;97685.67;115830;1189;28163;-89
2021/09/06 09:21:03;;;;;;;2.00;0.90;;;;;;;19.65;38.24;97681.65;115841;1190;26814;-89
2021/09/06 09:23:44;;;;;;;1.80;1.00;;;;;;;19.51;37.55;97679.27;115815;1189;28199;-89
2021/09/06 09:26:13;;;;;;;2.60;1.30;;;;;;;19.45;37.92;97679.65;115805;1189;28643;-89
2021/09/06 09:28:45;;;;;;;3.10;1.50;;;;;;;19.50;37.89;97675.67;115814;1188;29686;-88
2021/09/06 09:31:17;;;;;;;2.90;1.70;;;;;;;19.37;38.49;97674.95;115778;1190;27962;-88
2021/09/06 09:33:48;;;;;;;2.80;1.20;;;;;;;19.49;39.04;97669.23;115901;1189;32094;-89
2021/09/06 09:36:29;;;;;;;2.50;1.30;;;;;;;19.46;38.50;97671.86;115870;1189;27644;-88
2021/09/06 09:39:10;;;;;;;2.60;1.40;;;;;;;19.25;38.86;97671.44;115817;1189;37966;-88
2021/09/06 09:41:40;;;;;;;2.20;1.10;;;;;;;19.16;39.10;97669.65;115802;1189;32332;-88
2021/09/06 09:44:16;;;;;;;1.90;1.20;;;;;;;19.05;39.24;97673.18;115783;1189;29744;-87
2021/09/06 09:46:54;;;;;;;2.60;1.40;;;;;;;18.91;39.43;97671.80;115742;1189;70527;-88
2021/09/06 09:49:24;;;;;;;1.80;1.10;;;;;;;18.83;38.78;97667.00;115846;1189;27304;-88
2021/09/06 09:51:52;;;;;;;2.10;1.20;;;;;;;18.69;39.63;97662.56;115843;1194;30613;-87
2021/09/06 09:54:21;;;;;;;1.50;1.00;;;;;;;18.95;40.50;97664.36;115830;1189;32841;-88
2021/09/06 09:56:49;;;;;;;2.60;1.30;;;;;;;19.08;39.90;97663.02;115888;1189;26124;-88
2021/09/06 09:59:19;;;;;;;4.20;1.20;;;;;;;19.23;40.41;97659.62;115883;1189;25893;-88
2021/09/06 10:01:53;;;;;;;3.60;1.50;;;;;;;19.46;40.29;97660.41;115896;1190;24777;-87
2021/09/06 10:04:25;;;;;;;0.80;0.60;;;;;;;19.48;39.56;97663.27;115826;1193;27334;-88
2021/09/06 10:06:55;;;;;;;1.90;1.10;;;;;;;19.51;39.10;97665.11;115849;1189;26349;-88
2021/09/06 10:09:22;;;;;;;;;;;;;;;19.15;38.23;97660.18;115809;1189;32883;-88
2021/09/06 10:11:51;;;;;;;3.20;1.10;;;;;;;19.06;39.18;97657.16;115875;1195;26828;-88
2021/09/06 10:14:21;;;;;;;1.40;1.10;;;;;;;19.09;39.01;97655.62;115894;1193;28154;-88
2021/09/06 10:17:02;;;;;;;1.40;0.90;;;;;;;18.92;38.90;97654.80;115903;1190;29227;-88
2021/09/06 10:19:40;;;;;;;2.10;1.20;;;;;;;18.90;39.04;97653.99;115806;1195;26935;-88
2021/09/06 10:22:19;;;;;;;2.00;0.90;;;;;;;18.96;40.01;97650.77;115851;1189;28806;-89
2021/09/06 10:24:57;;;;;;;1.30;0.70;;;;;;;19.11;39.16;97651.36;115870;1192;32542;-89
2021/09/06 10:27:28;;;;;;;2.50;1.20;;;;;;;18.77;38.45;97654.50;115812;1189;26542;-89
2021/09/06 10:30:07;;;;;;;2.50;1.10;;;;;;;18.31;38.58;97651.10;115810;1189;26254;-89
2021/09/06 10:32:39;;;;;;;2.20;1.20;;;;;;;18.24;40.36;97651.94;115801;1193;29963;-89
2021/09/06 10:35:11;;;;;;;1.20;0.90;;;;;;;18.36;39.85;97648.71;115829;1189;29066;-88
2021/09/06 10:37:40;;;;;;;2.30;1.10;;;;;;;18.34;39.33;97646.67;115795;1188;27938;-88
2021/09/06 10:40:12;;;;;;;1.90;1.00;;;;;;;18.10;39.10;97648.32;115788;1189;40262;-88
2021/09/06 10:42:42;;;;;;;1.90;1.00;;;;;;;18.08;39.20;97650.80;115809;1191;29367;-88
2021/09/06 10:45:12;;;;;;;1.80;0.90;;;;;;;18.14;39.68;97647.38;115775;1190;29561;-88
2021/09/06 10:47:42;;;;;;;2.60;1.30;;;;;;;18.16;39.83;97642.99;115836;1189;29767;-89
2021/09/06 10:50:17;;;;;;;2.00;1.20;;;;;;;18.30;39.76;97640.95;115796;1189;28691;-88
2021/09/06 10:52:46;;;;;;;1.70;0.90;;;;;;;18.19;38.95;97641.95;115834;1195;32889;-88
2021/09/06 10:55:17;;;;;;;2.50;1.40;;;;;;;17.98;39.36;97636.35;115789;1189;30356;-87
2021/09/06 10:57:45;;;;;;;;;;;;;;;18.01;40.08;97633.42;115812;1190;26440;-88
2021/09/06 11:00:22;;;;;;;2.20;1.20;;;;;;;18.18;40.18;97632.73;115831;1190;28586;-89
2021/09/06 11:02:52;;;;;;;2.20;1.00;;;;;;;18.16;39.81;97628.70;115859;1195;41158;-88
2021/09/06 11:05:22;;;;;;;2.00;1.00;;;;;;;18.20;40.23;97625.77;115892;1190;27616;-88
2021/09/06 11:07:52;;;;;;;1.90;1.20;;;;;;;18.41;40.09;97628.30;115863;1189;27099;-88
2021/09/06 11:10:22;;;;;;;2.30;1.20;;;;;;;18.40;39.66;97620.77;115803;1189;26192;-89
2021/09/06 11:12:55;;;;;;;2.50;1.30;;;;;;;18.48;40.59;97625.09;115864;1189;29792;-88
2021/09/06 11:15:26;;;;;;;3.30;1.00;;;;;;;18.65;40.86;97620.91;115746;1189;37449;-88
2021/09/06 11:17:59;;;;;;;2.00;1.30;;;;;;;18.83;41.05;97622.55;115716;1185;27346;-87
2021/09/06 11:20:31;;;;;;;2.30;1.30;;;;;;;19.01;40.89;97623.08;115796;1184;30089;-88
2021/09/06 11:23:01;;;;;;;2.30;1.40;;;;;;;19.13;40.44;97619.38;115820;1190;27275;-88
2021/09/06 11:25:31;;;;;;;2.20;1.00;;;;;;;19.07;40.31;97622.77;115780;1189;26609;-88
2021/09/06 11:28:08;;;;;;;;;;;;;;;18.88;40.01;97615.39;115798;1190;34977;-88
2021/09/06 11:30:39;;;;;;;2.00;1.00;;;;;;;18.67;39.89;97622.09;115822;1189;29234;-88
2021/09/06 11:33:10;;;;;;;2.20;1.30;;;;;;;18.60;39.97;97617.14;115793;1188;47642;-88
2021/09/06 11:35:40;;;;;;;2.40;1.20;;;;;;;18.54;39.47;97619.41;115737;1196;43178;-88
2021/09/06 11:38:09;;;;;;;2.10;1.30;;;;;;;18.38;39.45;97618.65;115801;1190;29667;-88